sensor_id;sensor_type;location;lat;lon;timestamp;temperature;humidity
6307;DHT22;3186;54.062;9.962;2024-01-15T00:00:39;2.20;99.90
6307;DHT22;3186;54.062;9.962;2024-01-15T00:03:05;2.30;99.90
6307;DHT22;3186;54.062;9.962;2024-01-15T00:05:30;2.30;99.90
6307;DHT22;3186;54.062;9.962;2024-01-15T00:07:56;2.30;99.90
6307;DHT22;3186;54.062;9.962;2024-01-15T00:10:22;2.30;99.90
6307;DHT22;3186;54.062;9.962;2024-01-15T00:12:48;2.30;99.90
6307;DHT22;3186;54.062;9.962;2024-01-15T00:15:14;2.30;99.90
6307;DHT22;3186;54.062;9.962;2024-01-15T00:17:40;2.40;99.90
6307;DHT22;3186;54.062;9.962;2024-01-15T00:20:06;2.40;99.90
6307;DHT22;3186;54.062;9.962;2024-01-15T00:22:32;2.40;99.90
6307;DHT22;3186;54.062;9.962;2024-01-15T00:24:58;2.40;99.90
6307;DHT22;3186;54.062;9.962;2024-01-15T00:27:23;2.40;99.90
6307;DHT22;3186;54.062;9.962;2024-01-15T00:29:49;2.50;99.90
6307;DHT22;3186;54.062;9.962;2024-01-15T00:32:17;2.50;99.90
6307;DHT22;3186;54.062;9.962;2024-01-15T00:34:42;2.50;99.90
6307;DHT22;3186;54.062;9.962;2024-01-15T00:37:08;2.40;99.90
6307;DHT22;3186;54.062;9.962;2024-01-15T00:39:34;2.40;99.90
6307;DHT22;3186;54.062;9.962;2024-01-15T00:41:59;2.30;99.90
6307;DHT22;3186;54.062;9.962;2024-01-15T00:44:25;2.30;99.90
6307;DHT22;3186;54.062;9.962;2024-01-15T00:46:50;2.30;99.90
6307;DHT22;3186;54.062;9.962;2024-01-15T00:49:16;2.30;99.90
6307;DHT22;3186;54.062;9.962;2024-01-15T00:51:42;2.30;99.90
6307;DHT22;3186;54.062;9.962;2024-01-15T00:54:07;2.20;99.90
6307;DHT22;3186;54.062;9.962;2024-01-15T00:56:33;2.20;99.90
6307;DHT22;3186;54.062;9.962;2024-01-15T00:59:00;2.30;99.90
6307;DHT22;3186;54.062;9.962;2024-01-15T01:01:26;2.30;99.90
6307;DHT22;3186;54.062;9.962;2024-01-15T01:03:51;2.30;99.90
6307;DHT22;3186;54.062;9.962;2024-01-15T01:06:17;2.30;99.90
6307;DHT22;3186;54.062;9.962;2024-01-15T01:08:42;2.30;99.90
6307;DHT22;3186;54.062;9.962;2024-01-15T01:11:13;2.30;99.90
6307;DHT22;3186;54.062;9.962;2024-01-15T01:13:38;2.30;99.90
6307;DHT22;3186;54.062;9.962;2024-01-15T01:16:04;2.30;99.90
6307;DHT22;3186;54.062;9.962;2024-01-15T01:18:30;2.30;99.90
6307;DHT22;3186;54.062;9.962;2024-01-15T01:20:55;2.30;99.90
6307;DHT22;3186;54.062;9.962;2024-01-15T01:23:21;2.30;99.90
6307;DHT22;3186;54.062;9.962;2024-01-15T01:25:46;2.30;99.90
6307;DHT22;3186;54.062;9.962;2024-01-15T01:28:12;2.30;99.90
6307;DHT22;3186;54.062;9.962;2024-01-15T01:30:38;2.30;99.90
6307;DHT22;3186;54.062;9.962;2024-01-15T01:33:03;2.30;99.90
6307;DHT22;3186;54.062;9.962;2024-01-15T01:35:29;2.30;99.90
6307;DHT22;3186;54.062;9.962;2024-01-15T01:37:54;2.30;99.90
6307;DHT22;3186;54.062;9.962;2024-01-15T01:40:20;2.30;99.90
6307;DHT22;3186;54.062;9.962;2024-01-15T01:42:46;2.30;99.90
6307;DHT22;3186;54.062;9.962;2024-01-15T01:45:14;2.30;99.90
6307;DHT22;3186;54.062;9.962;2024-01-15T01:47:40;2.30;99.90
6307;DHT22;3186;54.062;9.962;2024-01-15T01:50:06;2.30;99.90
6307;DHT22;3186;54.062;9.962;2024-01-15T01:52:32;2.30;99.90
6307;DHT22;3186;54.062;9.962;2024-01-15T01:55:00;2.30;99.90
6307;DHT22;3186;54.062;9.962;2024-01-15T01:57:26;2.30;99.90
6307;DHT22;3186;54.062;9.962;2024-01-15T01:59:53;2.30;99.90
6307;DHT22;3186;54.062;9.962;2024-01-15T02:02:18;4.00;99.90
6307;DHT22;3186;54.062;9.962;2024-01-15T02:04:47;2.30;99.90
6307;DHT22;3186;54.062;9.962;2024-01-15T02:07:13;2.30;99.90
6307;DHT22;3186;54.062;9.962;2024-01-15T02:09:39;2.30;99.90
6307;DHT22;3186;54.062;9.962;2024-01-15T02:12:05;2.20;99.90
6307;DHT22;3186;54.062;9.962;2024-01-15T02:14:31;2.30;99.90
6307;DHT22;3186;54.062;9.962;2024-01-15T02:16:57;2.30;99.90
6307;DHT22;3186;54.062;9.962;2024-01-15T02:19:23;2.20;99.90
6307;DHT22;3186;54.062;9.962;2024-01-15T02:21:48;2.30;99.90
6307;DHT22;3186;54.062;9.962;2024-01-15T02:24:14;2.30;99.90
6307;DHT22;3186;54.062;9.962;2024-01-15T02:26:40;2.30;99.90
6307;DHT22;3186;54.062;9.962;2024-01-15T02:29:07;2.30;99.90
6307;DHT22;3186;54.062;9.962;2024-01-15T02:31:36;2.30;99.90
6307;DHT22;3186;54.062;9.962;2024-01-15T02:34:02;2.30;99.90
6307;DHT22;3186;54.062;9.962;2024-01-15T02:36:27;2.30;99.90
6307;DHT22;3186;54.062;9.962;2024-01-15T02:38:53;2.30;99.90
6307;DHT22;3186;54.062;9.962;2024-01-15T02:41:18;2.30;99.90
6307;DHT22;3186;54.062;9.962;2024-01-15T02:43:44;2.30;99.90
6307;DHT22;3186;54.062;9.962;2024-01-15T02:46:10;2.30;99.90
6307;DHT22;3186;54.062;9.962;2024-01-15T02:48:35;2.30;99.90
6307;DHT22;3186;54.062;9.962;2024-01-15T02:51:01;2.30;99.90
6307;DHT22;3186;54.062;9.962;2024-01-15T02:53:27;2.20;99.90
6307;DHT22;3186;54.062;9.962;2024-01-15T02:55:53;2.20;99.90
6307;DHT22;3186;54.062;9.962;2024-01-15T02:58:18;2.20;99.90
6307;DHT22;3186;54.062;9.962;2024-01-15T03:00:44;2.20;99.90
6307;DHT22;3186;54.062;9.962;2024-01-15T03:03:10;2.20;99.90
6307;DHT22;3186;54.062;9.962;2024-01-15T03:05:35;2.40;99.90
6307;DHT22;3186;54.062;9.962;2024-01-15T03:08:01;2.20;99.90
6307;DHT22;3186;54.062;9.962;2024-01-15T03:10:26;2.20;99.90
6307;DHT22;3186;54.062;9.962;2024-01-15T03:12:52;2.20;99.90
6307;DHT22;3186;54.062;9.962;2024-01-15T03:15:18;2.20;99.90
6307;DHT22;3186;54.062;9.962;2024-01-15T03:17:44;2.20;99.90
6307;DHT22;3186;54.062;9.962;2024-01-15T03:20:11;2.30;99.90
6307;DHT22;3186;54.062;9.962;2024-01-15T03:22:36;2.20;99.90
6307;DHT22;3186;54.062;9.962;2024-01-15T03:25:03;2.30;99.90
6307;DHT22;3186;54.062;9.962;2024-01-15T03:27:29;2.30;99.90
6307;DHT22;3186;54.062;9.962;2024-01-15T03:29:55;2.30;99.90
6307;DHT22;3186;54.062;9.962;2024-01-15T03:32:20;2.20;99.90
6307;DHT22;3186;54.062;9.962;2024-01-15T03:34:46;4.40;99.90
6307;DHT22;3186;54.062;9.962;2024-01-15T03:37:13;2.30;99.90
6307;DHT22;3186;54.062;9.962;2024-01-15T03:39:38;2.20;99.90
6307;DHT22;3186;54.062;9.962;2024-01-15T03:42:04;2.30;99.90
6307;DHT22;3186;54.062;9.962;2024-01-15T03:44:30;2.30;99.90
6307;DHT22;3186;54.062;9.962;2024-01-15T03:46:55;2.20;99.90
6307;DHT22;3186;54.062;9.962;2024-01-15T03:49:21;2.20;99.90
6307;DHT22;3186;54.062;9.962;2024-01-15T03:51:47;2.10;99.90
6307;DHT22;3186;54.062;9.962;2024-01-15T03:54:12;2.20;99.90
6307;DHT22;3186;54.062;9.962;2024-01-15T03:56:38;2.20;99.90
6307;DHT22;3186;54.062;9.962;2024-01-15T03:59:04;2.20;99.90
6307;DHT22;3186;54.062;9.962;2024-01-15T04:01:29;2.20;99.90
6307;DHT22;3186;54.062;9.962;2024-01-15T04:03:55;2.20;99.90
6307;DHT22;3186;54.062;9.962;2024-01-15T04:06:21;2.20;99.90
6307;DHT22;3186;54.062;9.962;2024-01-15T04:08:46;2.20;99.90
6307;DHT22;3186;54.062;9.962;2024-01-15T04:11:12;2.20;99.90
6307;DHT22;3186;54.062;9.962;2024-01-15T04:13:37;2.10;99.90
6307;DHT22;3186;54.062;9.962;2024-01-15T04:16:03;2.10;99.90
6307;DHT22;3186;54.062;9.962;2024-01-15T04:18:29;2.10;99.90
6307;DHT22;3186;54.062;9.962;2024-01-15T04:20:54;2.10;99.90
6307;DHT22;3186;54.062;9.962;2024-01-15T04:23:20;2.20;99.90
6307;DHT22;3186;54.062;9.962;2024-01-15T04:25:46;2.20;99.90
6307;DHT22;3186;54.062;9.962;2024-01-15T04:28:12;2.10;99.90
6307;DHT22;3186;54.062;9.962;2024-01-15T04:30:38;2.10;99.90
6307;DHT22;3186;54.062;9.962;2024-01-15T04:33:03;2.10;99.90
6307;DHT22;3186;54.062;9.962;2024-01-15T04:35:30;2.10;99.90
6307;DHT22;3186;54.062;9.962;2024-01-15T04:37:56;2.10;99.90
6307;DHT22;3186;54.062;9.962;2024-01-15T04:40:21;2.10;99.90
6307;DHT22;3186;54.062;9.962;2024-01-15T04:42:47;2.10;99.90
6307;DHT22;3186;54.062;9.962;2024-01-15T04:45:13;2.10;99.90
6307;DHT22;3186;54.062;9.962;2024-01-15T04:47:38;2.00;99.90
6307;DHT22;3186;54.062;9.962;2024-01-15T04:50:05;2.00;99.90
6307;DHT22;3186;54.062;9.962;2024-01-15T04:52:31;2.00;99.90
6307;DHT22;3186;54.062;9.962;2024-01-15T04:54:56;2.10;99.90
6307;DHT22;3186;54.062;9.962;2024-01-15T04:57:22;2.10;99.90
6307;DHT22;3186;54.062;9.962;2024-01-15T04:59:48;2.10;99.90
6307;DHT22;3186;54.062;9.962;2024-01-15T05:02:13;2.10;99.90
6307;DHT22;3186;54.062;9.962;2024-01-15T05:04:39;2.10;99.90
6307;DHT22;3186;54.062;9.962;2024-01-15T05:07:05;2.10;99.90
6307;DHT22;3186;54.062;9.962;2024-01-15T05:09:30;2.10;99.90
6307;DHT22;3186;54.062;9.962;2024-01-15T05:11:56;2.10;99.90
6307;DHT22;3186;54.062;9.962;2024-01-15T05:14:22;2.00;99.90
6307;DHT22;3186;54.062;9.962;2024-01-15T05:16:48;2.10;99.90
6307;DHT22;3186;54.062;9.962;2024-01-15T05:19:15;2.00;99.90
6307;DHT22;3186;54.062;9.962;2024-01-15T05:21:40;2.10;99.90
6307;DHT22;3186;54.062;9.962;2024-01-15T05:24:07;2.10;99.90
6307;DHT22;3186;54.062;9.962;2024-01-15T05:26:33;2.10;99.90
6307;DHT22;3186;54.062;9.962;2024-01-15T05:28:58;2.10;99.90
6307;DHT22;3186;54.062;9.962;2024-01-15T05:31:24;2.00;99.90
6307;DHT22;3186;54.062;9.962;2024-01-15T05:33:49;2.10;99.90
6307;DHT22;3186;54.062;9.962;2024-01-15T05:36:15;2.10;99.90
6307;DHT22;3186;54.062;9.962;2024-01-15T05:38:41;2.00;99.90
6307;DHT22;3186;54.062;9.962;2024-01-15T05:41:06;2.00;99.90
6307;DHT22;3186;54.062;9.962;2024-01-15T05:43:32;2.00;99.90
6307;DHT22;3186;54.062;9.962;2024-01-15T05:45:57;1.90;99.90
6307;DHT22;3186;54.062;9.962;2024-01-15T05:48:23;2.00;99.90
6307;DHT22;3186;54.062;9.962;2024-01-15T05:50:49;2.00;99.90
6307;DHT22;3186;54.062;9.962;2024-01-15T05:53:15;2.10;99.90
6307;DHT22;3186;54.062;9.962;2024-01-15T05:55:40;2.00;99.90
6307;DHT22;3186;54.062;9.962;2024-01-15T05:58:06;2.00;99.90
6307;DHT22;3186;54.062;9.962;2024-01-15T06:00:32;2.00;99.90
6307;DHT22;3186;54.062;9.962;2024-01-15T06:03:01;2.00;99.90
6307;DHT22;3186;54.062;9.962;2024-01-15T06:05:27;2.00;99.90
6307;DHT22;3186;54.062;9.962;2024-01-15T06:07:53;2.00;99.90
6307;DHT22;3186;54.062;9.962;2024-01-15T06:10:18;2.00;99.90
6307;DHT22;3186;54.062;9.962;2024-01-15T06:12:44;1.90;99.90
6307;DHT22;3186;54.062;9.962;2024-01-15T06:15:10;1.90;99.90
6307;DHT22;3186;54.062;9.962;2024-01-15T06:17:36;1.90;99.90
6307;DHT22;3186;54.062;9.962;2024-01-15T06:20:03;2.00;99.90
6307;DHT22;3186;54.062;9.962;2024-01-15T06:22:28;2.10;99.90
6307;DHT22;3186;54.062;9.962;2024-01-15T06:24:54;2.00;99.90
6307;DHT22;3186;54.062;9.962;2024-01-15T06:27:21;2.00;99.90
6307;DHT22;3186;54.062;9.962;2024-01-15T06:29:46;2.00;99.90
6307;DHT22;3186;54.062;9.962;2024-01-15T06:32:15;3.20;99.90
6307;DHT22;3186;54.062;9.962;2024-01-15T06:34:40;2.00;99.90
6307;DHT22;3186;54.062;9.962;2024-01-15T06:37:06;2.00;99.90
6307;DHT22;3186;54.062;9.962;2024-01-15T06:39:32;2.00;99.90
6307;DHT22;3186;54.062;9.962;2024-01-15T06:41:57;2.00;99.90
6307;DHT22;3186;54.062;9.962;2024-01-15T06:44:23;2.00;99.90
6307;DHT22;3186;54.062;9.962;2024-01-15T06:46:49;2.00;99.90
6307;DHT22;3186;54.062;9.962;2024-01-15T06:49:14;2.00;99.90
6307;DHT22;3186;54.062;9.962;2024-01-15T06:51:40;2.00;99.90
6307;DHT22;3186;54.062;9.962;2024-01-15T06:54:06;2.00;99.90
6307;DHT22;3186;54.062;9.962;2024-01-15T06:56:32;2.00;99.90
6307;DHT22;3186;54.062;9.962;2024-01-15T06:58:57;2.00;99.90
6307;DHT22;3186;54.062;9.962;2024-01-15T07:01:23;2.00;99.90
6307;DHT22;3186;54.062;9.962;2024-01-15T07:03:49;2.00;99.90
6307;DHT22;3186;54.062;9.962;2024-01-15T07:06:14;2.00;99.90
6307;DHT22;3186;54.062;9.962;2024-01-15T07:08:40;2.00;99.90
6307;DHT22;3186;54.062;9.962;2024-01-15T07:11:06;2.00;99.90
6307;DHT22;3186;54.062;9.962;2024-01-15T07:13:32;2.00;99.90
6307;DHT22;3186;54.062;9.962;2024-01-15T07:15:58;2.00;99.90
6307;DHT22;3186;54.062;9.962;2024-01-15T07:18:24;2.00;99.90
6307;DHT22;3186;54.062;9.962;2024-01-15T07:20:50;2.00;99.90
6307;DHT22;3186;54.062;9.962;2024-01-15T07:23:15;2.00;99.90
6307;DHT22;3186;54.062;9.962;2024-01-15T07:25:41;2.00;99.90
6307;DHT22;3186;54.062;9.962;2024-01-15T07:28:07;2.00;99.90
6307;DHT22;3186;54.062;9.962;2024-01-15T07:30:33;2.00;99.90
6307;DHT22;3186;54.062;9.962;2024-01-15T07:32:59;2.00;99.90
6307;DHT22;3186;54.062;9.962;2024-01-15T07:35:24;2.00;99.90
6307;DHT22;3186;54.062;9.962;2024-01-15T07:37:50;2.00;99.90
6307;DHT22;3186;54.062;9.962;2024-01-15T07:40:15;2.00;99.90
6307;DHT22;3186;54.062;9.962;2024-01-15T07:42:41;2.00;99.90
6307;DHT22;3186;54.062;9.962;2024-01-15T07:45:08;2.00;99.90
6307;DHT22;3186;54.062;9.962;2024-01-15T07:47:34;2.00;99.90
6307;DHT22;3186;54.062;9.962;2024-01-15T07:50:00;1.90;99.90
6307;DHT22;3186;54.062;9.962;2024-01-15T07:52:25;1.90;99.90
6307;DHT22;3186;54.062;9.962;2024-01-15T07:54:51;1.90;99.90
6307;DHT22;3186;54.062;9.962;2024-01-15T07:57:17;1.90;99.90
6307;DHT22;3186;54.062;9.962;2024-01-15T07:59:42;2.00;99.90
6307;DHT22;3186;54.062;9.962;2024-01-15T08:02:08;1.90;99.90
6307;DHT22;3186;54.062;9.962;2024-01-15T08:04:33;1.90;99.90
6307;DHT22;3186;54.062;9.962;2024-01-15T08:06:59;1.90;99.90
6307;DHT22;3186;54.062;9.962;2024-01-15T08:09:25;2.00;99.90
6307;DHT22;3186;54.062;9.962;2024-01-15T08:11:50;1.90;99.90
6307;DHT22;3186;54.062;9.962;2024-01-15T08:14:17;1.80;99.90
6307;DHT22;3186;54.062;9.962;2024-01-15T08:16:43;1.90;99.90
6307;DHT22;3186;54.062;9.962;2024-01-15T08:19:09;1.90;99.90
6307;DHT22;3186;54.062;9.962;2024-01-15T08:21:35;1.90;99.90
6307;DHT22;3186;54.062;9.962;2024-01-15T08:24:02;1.90;99.90
6307;DHT22;3186;54.062;9.962;2024-01-15T08:26:28;1.90;99.90
6307;DHT22;3186;54.062;9.962;2024-01-15T08:28:54;1.80;99.90
6307;DHT22;3186;54.062;9.962;2024-01-15T08:31:20;1.90;99.90
6307;DHT22;3186;54.062;9.962;2024-01-15T08:33:46;1.90;99.90
6307;DHT22;3186;54.062;9.962;2024-01-15T08:36:11;1.90;99.90
6307;DHT22;3186;54.062;9.962;2024-01-15T08:38:37;1.90;99.90
6307;DHT22;3186;54.062;9.962;2024-01-15T08:41:03;1.90;99.90
6307;DHT22;3186;54.062;9.962;2024-01-15T08:43:29;2.00;99.90
6307;DHT22;3186;54.062;9.962;2024-01-15T08:45:56;2.00;99.90
6307;DHT22;3186;54.062;9.962;2024-01-15T08:48:22;2.00;99.90
6307;DHT22;3186;54.062;9.962;2024-01-15T08:50:48;2.00;99.90
6307;DHT22;3186;54.062;9.962;2024-01-15T08:53:14;2.00;99.90
6307;DHT22;3186;54.062;9.962;2024-01-15T08:55:40;2.00;99.90
6307;DHT22;3186;54.062;9.962;2024-01-15T08:58:08;2.00;99.90
6307;DHT22;3186;54.062;9.962;2024-01-15T09:00:34;2.00;99.90
6307;DHT22;3186;54.062;9.962;2024-01-15T09:03:00;2.00;99.90
6307;DHT22;3186;54.062;9.962;2024-01-15T09:05:26;2.00;99.90
6307;DHT22;3186;54.062;9.962;2024-01-15T09:07:51;2.00;99.90
6307;DHT22;3186;54.062;9.962;2024-01-15T09:10:20;2.00;99.90
6307;DHT22;3186;54.062;9.962;2024-01-15T09:12:45;2.00;99.90
6307;DHT22;3186;54.062;9.962;2024-01-15T09:15:14;2.10;99.90
6307;DHT22;3186;54.062;9.962;2024-01-15T09:17:40;1.90;99.90
6307;DHT22;3186;54.062;9.962;2024-01-15T09:20:06;2.10;99.90
6307;DHT22;3186;54.062;9.962;2024-01-15T09:22:32;2.10;99.90
6307;DHT22;3186;54.062;9.962;2024-01-15T09:24:58;2.00;99.90
6307;DHT22;3186;54.062;9.962;2024-01-15T09:27:24;2.10;99.90
6307;DHT22;3186;54.062;9.962;2024-01-15T09:29:52;2.10;99.90
6307;DHT22;3186;54.062;9.962;2024-01-15T09:32:17;2.00;99.90
6307;DHT22;3186;54.062;9.962;2024-01-15T09:34:44;2.00;99.90
6307;DHT22;3186;54.062;9.962;2024-01-15T09:37:09;2.00;99.90
6307;DHT22;3186;54.062;9.962;2024-01-15T09:39:35;2.10;99.90
6307;DHT22;3186;54.062;9.962;2024-01-15T09:42:01;2.10;99.90
6307;DHT22;3186;54.062;9.962;2024-01-15T09:44:28;2.10;99.90
6307;DHT22;3186;54.062;9.962;2024-01-15T09:46:55;2.00;99.90
6307;DHT22;3186;54.062;9.962;2024-01-15T09:49:21;2.00;99.90
6307;DHT22;3186;54.062;9.962;2024-01-15T09:51:47;2.00;99.90
6307;DHT22;3186;54.062;9.962;2024-01-15T09:54:14;2.00;99.90
6307;DHT22;3186;54.062;9.962;2024-01-15T09:56:45;2.00;99.90
6307;DHT22;3186;54.062;9.962;2024-01-15T09:59:12;2.00;99.90
6307;DHT22;3186;54.062;9.962;2024-01-15T10:01:40;2.00;99.90
6307;DHT22;3186;54.062;9.962;2024-01-15T10:04:06;2.00;99.90
6307;DHT22;3186;54.062;9.962;2024-01-15T10:06:32;2.10;99.90
6307;DHT22;3186;54.062;9.962;2024-01-15T10:08:59;2.10;99.90
6307;DHT22;3186;54.062;9.962;2024-01-15T10:11:25;2.00;99.90
6307;DHT22;3186;54.062;9.962;2024-01-15T10:13:50;2.00;99.90
6307;DHT22;3186;54.062;9.962;2024-01-15T10:16:19;2.00;99.90
6307;DHT22;3186;54.062;9.962;2024-01-15T10:18:44;2.10;99.90
6307;DHT22;3186;54.062;9.962;2024-01-15T10:21:10;2.10;99.90
6307;DHT22;3186;54.062;9.962;2024-01-15T10:23:36;2.10;99.90
6307;DHT22;3186;54.062;9.962;2024-01-15T10:26:02;2.10;99.90
6307;DHT22;3186;54.062;9.962;2024-01-15T10:28:29;2.10;99.90
6307;DHT22;3186;54.062;9.962;2024-01-15T10:30:57;2.10;99.90
6307;DHT22;3186;54.062;9.962;2024-01-15T10:33:25;2.10;99.90
6307;DHT22;3186;54.062;9.962;2024-01-15T10:35:57;2.10;99.90
6307;DHT22;3186;54.062;9.962;2024-01-15T10:38:24;2.10;99.90
6307;DHT22;3186;54.062;9.962;2024-01-15T10:40:54;2.10;99.90
6307;DHT22;3186;54.062;9.962;2024-01-15T10:43:21;2.20;99.90
6307;DHT22;3186;54.062;9.962;2024-01-15T10:45:50;2.20;99.90
6307;DHT22;3186;54.062;9.962;2024-01-15T10:48:17;2.20;99.90
6307;DHT22;3186;54.062;9.962;2024-01-15T10:50:46;2.20;99.90
6307;DHT22;3186;54.062;9.962;2024-01-15T10:53:14;2.20;99.90
6307;DHT22;3186;54.062;9.962;2024-01-15T10:55:42;2.10;99.90
6307;DHT22;3186;54.062;9.962;2024-01-15T10:58:08;2.00;99.90
6307;DHT22;3186;54.062;9.962;2024-01-15T11:00:38;2.20;99.90
6307;DHT22;3186;54.062;9.962;2024-01-15T11:03:05;2.30;99.90
6307;DHT22;3186;54.062;9.962;2024-01-15T11:05:43;2.20;99.90
6307;DHT22;3186;54.062;9.962;2024-01-15T11:08:10;2.20;99.90
6307;DHT22;3186;54.062;9.962;2024-01-15T11:10:44;2.20;99.90
6307;DHT22;3186;54.062;9.962;2024-01-15T11:16:06;2.30;99.90
6307;DHT22;3186;54.062;9.962;2024-01-15T11:18:35;2.30;99.90
6307;DHT22;3186;54.062;9.962;2024-01-15T11:23:47;2.20;99.90
6307;DHT22;3186;54.062;9.962;2024-01-15T11:26:38;2.20;99.90
6307;DHT22;3186;54.062;9.962;2024-01-15T11:29:28;2.30;99.90
6307;DHT22;3186;54.062;9.962;2024-01-15T11:34:20;2.30;99.90
6307;DHT22;3186;54.062;9.962;2024-01-15T11:39:42;2.30;99.90
6307;DHT22;3186;54.062;9.962;2024-01-15T11:42:10;2.30;99.90
6307;DHT22;3186;54.062;9.962;2024-01-15T11:44:37;2.30;99.90
6307;DHT22;3186;54.062;9.962;2024-01-15T11:47:04;2.30;99.90
6307;DHT22;3186;54.062;9.962;2024-01-15T11:49:57;2.20;99.90
6307;DHT22;3186;54.062;9.962;2024-01-15T11:52:24;2.20;99.90
6307;DHT22;3186;54.062;9.962;2024-01-15T11:55:26;2.10;99.90
6307;DHT22;3186;54.062;9.962;2024-01-15T11:57:53;2.10;99.90
6307;DHT22;3186;54.062;9.962;2024-01-15T12:00:22;2.20;99.90
6307;DHT22;3186;54.062;9.962;2024-01-15T12:02:49;2.20;99.90
6307;DHT22;3186;54.062;9.962;2024-01-15T12:05:17;2.20;99.90
6307;DHT22;3186;54.062;9.962;2024-01-15T12:07:45;2.20;99.90
6307;DHT22;3186;54.062;9.962;2024-01-15T12:10:12;2.20;99.90
6307;DHT22;3186;54.062;9.962;2024-01-15T12:15:16;2.20;99.90
6307;DHT22;3186;54.062;9.962;2024-01-15T12:17:41;2.20;99.90
6307;DHT22;3186;54.062;9.962;2024-01-15T12:20:07;2.30;99.90
6307;DHT22;3186;54.062;9.962;2024-01-15T12:22:33;2.10;99.90
6307;DHT22;3186;54.062;9.962;2024-01-15T12:24:59;2.20;99.90
6307;DHT22;3186;54.062;9.962;2024-01-15T12:27:25;2.20;99.90
6307;DHT22;3186;54.062;9.962;2024-01-15T12:29:53;2.10;99.90
6307;DHT22;3186;54.062;9.962;2024-01-15T12:32:19;2.10;99.90
6307;DHT22;3186;54.062;9.962;2024-01-15T12:34:44;2.00;99.90
6307;DHT22;3186;54.062;9.962;2024-01-15T12:37:11;2.10;99.90
6307;DHT22;3186;54.062;9.962;2024-01-15T12:39:37;2.20;99.90
6307;DHT22;3186;54.062;9.962;2024-01-15T12:42:03;2.10;99.90
6307;DHT22;3186;54.062;9.962;2024-01-15T12:44:29;2.00;99.90
6307;DHT22;3186;54.062;9.962;2024-01-15T12:46:55;2.00;99.90
6307;DHT22;3186;54.062;9.962;2024-01-15T12:49:23;2.00;99.90
6307;DHT22;3186;54.062;9.962;2024-01-15T12:52:01;2.10;99.90
6307;DHT22;3186;54.062;9.962;2024-01-15T12:54:27;2.00;99.90
6307;DHT22;3186;54.062;9.962;2024-01-15T12:56:53;2.00;99.90
6307;DHT22;3186;54.062;9.962;2024-01-15T12:59:18;2.10;99.90
6307;DHT22;3186;54.062;9.962;2024-01-15T13:01:45;1.90;99.90
6307;DHT22;3186;54.062;9.962;2024-01-15T13:04:20;2.00;99.90
6307;DHT22;3186;54.062;9.962;2024-01-15T13:06:46;2.00;99.90
6307;DHT22;3186;54.062;9.962;2024-01-15T13:09:11;2.10;99.90
6307;DHT22;3186;54.062;9.962;2024-01-15T13:11:37;2.10;99.90
6307;DHT22;3186;54.062;9.962;2024-01-15T13:14:03;2.00;99.90
6307;DHT22;3186;54.062;9.962;2024-01-15T13:16:28;1.90;99.90
6307;DHT22;3186;54.062;9.962;2024-01-15T13:18:55;2.00;99.90
6307;DHT22;3186;54.062;9.962;2024-01-15T13:21:22;2.00;99.90
6307;DHT22;3186;54.062;9.962;2024-01-15T13:23:48;2.10;99.90
6307;DHT22;3186;54.062;9.962;2024-01-15T13:26:13;2.10;99.90
6307;DHT22;3186;54.062;9.962;2024-01-15T13:28:39;2.00;99.90
6307;DHT22;3186;54.062;9.962;2024-01-15T13:31:05;2.00;99.90
6307;DHT22;3186;54.062;9.962;2024-01-15T13:33:30;2.00;99.90
6307;DHT22;3186;54.062;9.962;2024-01-15T13:35:56;2.00;99.90
6307;DHT22;3186;54.062;9.962;2024-01-15T13:38:22;2.00;99.90
6307;DHT22;3186;54.062;9.962;2024-01-15T13:40:47;2.00;99.90
6307;DHT22;3186;54.062;9.962;2024-01-15T13:43:13;2.00;99.90
6307;DHT22;3186;54.062;9.962;2024-01-15T13:45:41;1.90;99.90
6307;DHT22;3186;54.062;9.962;2024-01-15T13:48:07;1.90;99.90
6307;DHT22;3186;54.062;9.962;2024-01-15T13:50:34;1.90;99.90
6307;DHT22;3186;54.062;9.962;2024-01-15T13:53:01;2.00;99.90
6307;DHT22;3186;54.062;9.962;2024-01-15T13:55:27;2.00;99.90
6307;DHT22;3186;54.062;9.962;2024-01-15T13:57:54;2.00;99.90
6307;DHT22;3186;54.062;9.962;2024-01-15T14:00:20;2.00;99.90
6307;DHT22;3186;54.062;9.962;2024-01-15T14:02:46;2.00;99.90
6307;DHT22;3186;54.062;9.962;2024-01-15T14:05:12;2.00;99.90
6307;DHT22;3186;54.062;9.962;2024-01-15T14:07:41;2.00;99.90
6307;DHT22;3186;54.062;9.962;2024-01-15T14:10:09;2.00;99.90
6307;DHT22;3186;54.062;9.962;2024-01-15T14:12:35;2.00;99.90
6307;DHT22;3186;54.062;9.962;2024-01-15T14:15:02;2.00;99.90
6307;DHT22;3186;54.062;9.962;2024-01-15T14:17:28;2.00;99.90
6307;DHT22;3186;54.062;9.962;2024-01-15T14:19:54;1.90;99.90
6307;DHT22;3186;54.062;9.962;2024-01-15T14:22:19;1.90;99.90
6307;DHT22;3186;54.062;9.962;2024-01-15T14:24:45;1.80;99.90
6307;DHT22;3186;54.062;9.962;2024-01-15T14:27:10;1.90;99.90
6307;DHT22;3186;54.062;9.962;2024-01-15T14:29:36;1.90;99.90
6307;DHT22;3186;54.062;9.962;2024-01-15T14:32:02;1.90;99.90
6307;DHT22;3186;54.062;9.962;2024-01-15T14:34:28;1.90;99.90
6307;DHT22;3186;54.062;9.962;2024-01-15T14:36:53;1.90;99.90
6307;DHT22;3186;54.062;9.962;2024-01-15T14:39:21;1.80;99.90
6307;DHT22;3186;54.062;9.962;2024-01-15T14:41:47;1.80;99.90
6307;DHT22;3186;54.062;9.962;2024-01-15T14:44:13;1.80;99.90
6307;DHT22;3186;54.062;9.962;2024-01-15T14:46:39;1.80;99.90
6307;DHT22;3186;54.062;9.962;2024-01-15T14:49:04;1.80;99.90
6307;DHT22;3186;54.062;9.962;2024-01-15T14:51:30;1.80;99.90
6307;DHT22;3186;54.062;9.962;2024-01-15T14:53:56;1.70;99.90
6307;DHT22;3186;54.062;9.962;2024-01-15T14:56:21;1.80;99.90
6307;DHT22;3186;54.062;9.962;2024-01-15T14:58:47;1.70;99.90
6307;DHT22;3186;54.062;9.962;2024-01-15T15:01:13;1.70;99.90
6307;DHT22;3186;54.062;9.962;2024-01-15T15:03:39;1.70;99.90
6307;DHT22;3186;54.062;9.962;2024-01-15T15:06:04;1.70;99.90
6307;DHT22;3186;54.062;9.962;2024-01-15T15:08:33;1.70;99.90
6307;DHT22;3186;54.062;9.962;2024-01-15T15:10:59;1.60;99.90
6307;DHT22;3186;54.062;9.962;2024-01-15T15:13:25;1.60;99.90
6307;DHT22;3186;54.062;9.962;2024-01-15T15:15:52;1.60;99.90
6307;DHT22;3186;54.062;9.962;2024-01-15T15:18:19;1.60;99.90
6307;DHT22;3186;54.062;9.962;2024-01-15T15:20:45;1.60;99.90
6307;DHT22;3186;54.062;9.962;2024-01-15T15:23:11;1.60;99.90
6307;DHT22;3186;54.062;9.962;2024-01-15T15:25:36;1.60;99.90
6307;DHT22;3186;54.062;9.962;2024-01-15T15:28:03;1.50;99.90
6307;DHT22;3186;54.062;9.962;2024-01-15T15:30:31;1.60;99.90
6307;DHT22;3186;54.062;9.962;2024-01-15T15:32:56;1.50;99.90
6307;DHT22;3186;54.062;9.962;2024-01-15T15:35:22;1.50;99.90
6307;DHT22;3186;54.062;9.962;2024-01-15T15:37:48;1.50;99.90
6307;DHT22;3186;54.062;9.962;2024-01-15T15:40:13;1.50;99.90
6307;DHT22;3186;54.062;9.962;2024-01-15T15:42:39;1.50;99.90
6307;DHT22;3186;54.062;9.962;2024-01-15T15:45:05;1.40;99.90
6307;DHT22;3186;54.062;9.962;2024-01-15T15:47:31;1.40;99.90
6307;DHT22;3186;54.062;9.962;2024-01-15T15:49:58;1.40;99.90
6307;DHT22;3186;54.062;9.962;2024-01-15T15:52:23;1.40;99.90
6307;DHT22;3186;54.062;9.962;2024-01-15T15:54:49;1.40;99.90
6307;DHT22;3186;54.062;9.962;2024-01-15T15:57:15;1.40;99.90
6307;DHT22;3186;54.062;9.962;2024-01-15T15:59:41;1.30;99.90
6307;DHT22;3186;54.062;9.962;2024-01-15T16:02:06;1.30;99.90
6307;DHT22;3186;54.062;9.962;2024-01-15T16:04:33;1.30;99.90
6307;DHT22;3186;54.062;9.962;2024-01-15T16:06:58;1.20;99.90
6307;DHT22;3186;54.062;9.962;2024-01-15T16:09:24;1.20;99.90
6307;DHT22;3186;54.062;9.962;2024-01-15T16:11:49;1.20;99.90
6307;DHT22;3186;54.062;9.962;2024-01-15T16:14:15;1.20;99.90
6307;DHT22;3186;54.062;9.962;2024-01-15T16:16:43;1.20;99.90
6307;DHT22;3186;54.062;9.962;2024-01-15T16:19:09;1.20;99.90
6307;DHT22;3186;54.062;9.962;2024-01-15T16:21:35;1.10;99.90
6307;DHT22;3186;54.062;9.962;2024-01-15T16:24:01;1.10;99.90